sensor_id;sensor_type;location;lat;lon;timestamp;P1;durP1;ratioP1;P2;durP2;ratioP2
4084;SDS011;2057;50.858;6.572;2023-06-22T00:02:04;7.20;;;4.03;;
4084;SDS011;2057;50.858;6.572;2023-06-22T00:04:30;8.80;;;4.27;;
4084;SDS011;2057;50.858;6.572;2023-06-22T00:06:55;6.10;;;3.40;;
4084;SDS011;2057;50.858;6.572;2023-06-22T00:09:21;11.17;;;4.93;;
4084;SDS011;2057;50.858;6.572;2023-06-22T00:11:46;8.00;;;4.47;;
4084;SDS011;2057;50.858;6.572;2023-06-22T00:14:11;5.90;;;4.27;;
4084;SDS011;2057;50.858;6.572;2023-06-22T00:16:37;7.13;;;3.70;;
4084;SDS011;2057;50.858;6.572;2023-06-22T00:19:05;6.70;;;4.30;;
4084;SDS011;2057;50.858;6.572;2023-06-22T00:21:30;8.23;;;4.13;;
4084;SDS011;2057;50.858;6.572;2023-06-22T00:23:55;5.30;;;4.07;;
4084;SDS011;2057;50.858;6.572;2023-06-22T00:26:22;9.70;;;4.03;;
4084;SDS011;2057;50.858;6.572;2023-06-22T00:28:47;13.47;;;4.60;;
4084;SDS011;2057;50.858;6.572;2023-06-22T00:31:13;12.60;;;4.67;;
4084;SDS011;2057;50.858;6.572;2023-06-22T00:33:38;7.73;;;4.50;;
4084;SDS011;2057;50.858;6.572;2023-06-22T00:36:04;10.20;;;4.83;;
4084;SDS011;2057;50.858;6.572;2023-06-22T00:38:31;9.77;;;4.27;;
4084;SDS011;2057;50.858;6.572;2023-06-22T00:40:56;6.93;;;4.60;;
4084;SDS011;2057;50.858;6.572;2023-06-22T00:43:22;12.30;;;4.20;;
4084;SDS011;2057;50.858;6.572;2023-06-22T00:45:47;11.83;;;4.70;;
4084;SDS011;2057;50.858;6.572;2023-06-22T00:48:13;4.90;;;3.80;;
4084;SDS011;2057;50.858;6.572;2023-06-22T00:50:39;10.03;;;4.40;;
4084;SDS011;2057;50.858;6.572;2023-06-22T00:53:06;6.63;;;4.37;;
4084;SDS011;2057;50.858;6.572;2023-06-22T00:55:36;9.20;;;4.20;;
4084;SDS011;2057;50.858;6.572;2023-06-22T00:58:04;7.10;;;4.50;;
4084;SDS011;2057;50.858;6.572;2023-06-22T01:00:33;14.03;;;4.17;;
4084;SDS011;2057;50.858;6.572;2023-06-22T01:02:58;11.63;;;4.40;;
4084;SDS011;2057;50.858;6.572;2023-06-22T01:05:24;5.90;;;3.93;;
4084;SDS011;2057;50.858;6.572;2023-06-22T01:07:53;7.73;;;4.60;;
4084;SDS011;2057;50.858;6.572;2023-06-22T01:14:04;5.30;;;3.70;;
4084;SDS011;2057;50.858;6.572;2023-06-22T01:16:36;7.50;;;4.40;;
4084;SDS011;2057;50.858;6.572;2023-06-22T01:22:08;8.63;;;4.23;;
4084;SDS011;2057;50.858;6.572;2023-06-22T01:27:40;15.30;;;4.40;;
4084;SDS011;2057;50.858;6.572;2023-06-22T01:30:30;10.13;;;4.10;;
4084;SDS011;2057;50.858;6.572;2023-06-22T01:32:59;6.57;;;3.50;;
4084;SDS011;2057;50.858;6.572;2023-06-22T01:35:27;8.60;;;4.57;;
4084;SDS011;2057;50.858;6.572;2023-06-22T01:37:54;6.80;;;4.40;;
4084;SDS011;2057;50.858;6.572;2023-06-22T01:40:20;10.77;;;4.70;;
4084;SDS011;2057;50.858;6.572;2023-06-22T01:42:46;10.63;;;4.40;;
4084;SDS011;2057;50.858;6.572;2023-06-22T01:45:13;9.13;;;4.53;;
4084;SDS011;2057;50.858;6.572;2023-06-22T01:47:39;9.30;;;4.63;;
4084;SDS011;2057;50.858;6.572;2023-06-22T01:50:06;7.63;;;3.93;;
4084;SDS011;2057;50.858;6.572;2023-06-22T01:52:32;9.40;;;4.60;;
4084;SDS011;2057;50.858;6.572;2023-06-22T01:54:59;7.37;;;3.40;;
4084;SDS011;2057;50.858;6.572;2023-06-22T01:57:25;5.47;;;4.30;;
4084;SDS011;2057;50.858;6.572;2023-06-22T02:02:25;7.23;;;4.77;;
4084;SDS011;2057;50.858;6.572;2023-06-22T02:05:02;12.73;;;4.37;;
4084;SDS011;2057;50.858;6.572;2023-06-22T02:07:31;6.53;;;4.23;;
4084;SDS011;2057;50.858;6.572;2023-06-22T02:09:59;9.23;;;4.33;;
4084;SDS011;2057;50.858;6.572;2023-06-22T02:12:26;11.83;;;4.13;;
4084;SDS011;2057;50.858;6.572;2023-06-22T02:14:53;6.43;;;4.37;;
4084;SDS011;2057;50.858;6.572;2023-06-22T02:17:19;14.70;;;5.20;;
4084;SDS011;2057;50.858;6.572;2023-06-22T02:19:44;9.63;;;5.07;;
4084;SDS011;2057;50.858;6.572;2023-06-22T02:22:10;9.93;;;4.70;;
4084;SDS011;2057;50.858;6.572;2023-06-22T02:24:36;9.57;;;5.00;;
4084;SDS011;2057;50.858;6.572;2023-06-22T02:27:02;10.20;;;5.13;;
4084;SDS011;2057;50.858;6.572;2023-06-22T02:29:27;8.53;;;4.80;;
4084;SDS011;2057;50.858;6.572;2023-06-22T02:31:54;8.87;;;4.90;;
4084;SDS011;2057;50.858;6.572;2023-06-22T02:34:19;13.87;;;4.83;;
4084;SDS011;2057;50.858;6.572;2023-06-22T02:36:46;7.50;;;5.30;;
4084;SDS011;2057;50.858;6.572;2023-06-22T02:41:49;9.10;;;4.73;;
4084;SDS011;2057;50.858;6.572;2023-06-22T02:44:15;8.13;;;4.93;;
4084;SDS011;2057;50.858;6.572;2023-06-22T02:46:41;8.73;;;5.40;;
4084;SDS011;2057;50.858;6.572;2023-06-22T02:49:06;14.57;;;5.97;;
4084;SDS011;2057;50.858;6.572;2023-06-22T02:51:34;17.37;;;5.43;;
4084;SDS011;2057;50.858;6.572;2023-06-22T02:54:00;13.03;;;5.43;;
4084;SDS011;2057;50.858;6.572;2023-06-22T02:56:26;11.30;;;5.10;;
4084;SDS011;2057;50.858;6.572;2023-06-22T02:58:51;13.70;;;5.17;;
4084;SDS011;2057;50.858;6.572;2023-06-22T03:01:17;22.03;;;5.43;;
4084;SDS011;2057;50.858;6.572;2023-06-22T03:03:49;27.00;;;6.17;;
4084;SDS011;2057;50.858;6.572;2023-06-22T03:06:14;13.77;;;6.13;;
4084;SDS011;2057;50.858;6.572;2023-06-22T03:08:40;31.87;;;6.17;;
4084;SDS011;2057;50.858;6.572;2023-06-22T03:11:06;18.50;;;5.90;;
4084;SDS011;2057;50.858;6.572;2023-06-22T03:13:32;13.33;;;5.70;;
4084;SDS011;2057;50.858;6.572;2023-06-22T03:15:58;21.10;;;5.53;;
4084;SDS011;2057;50.858;6.572;2023-06-22T03:18:23;13.90;;;6.00;;
4084;SDS011;2057;50.858;6.572;2023-06-22T03:20:48;11.67;;;5.40;;
4084;SDS011;2057;50.858;6.572;2023-06-22T03:23:14;11.87;;;4.90;;
4084;SDS011;2057;50.858;6.572;2023-06-22T03:25:40;11.90;;;5.70;;
4084;SDS011;2057;50.858;6.572;2023-06-22T03:28:06;14.50;;;5.60;;
4084;SDS011;2057;50.858;6.572;2023-06-22T03:30:31;14.53;;;5.90;;
4084;SDS011;2057;50.858;6.572;2023-06-22T03:32:57;18.83;;;5.33;;
4084;SDS011;2057;50.858;6.572;2023-06-22T03:35:22;13.57;;;6.40;;
4084;SDS011;2057;50.858;6.572;2023-06-22T03:37:47;12.73;;;5.60;;
4084;SDS011;2057;50.858;6.572;2023-06-22T03:40:13;12.97;;;6.30;;
4084;SDS011;2057;50.858;6.572;2023-06-22T03:42:38;16.83;;;5.60;;
4084;SDS011;2057;50.858;6.572;2023-06-22T03:45:03;13.03;;;5.73;;
4084;SDS011;2057;50.858;6.572;2023-06-22T03:47:29;10.83;;;5.63;;
4084;SDS011;2057;50.858;6.572;2023-06-22T03:49:54;16.60;;;6.33;;
4084;SDS011;2057;50.858;6.572;2023-06-22T03:52:21;21.87;;;6.97;;
4084;SDS011;2057;50.858;6.572;2023-06-22T03:54:47;19.47;;;7.27;;
4084;SDS011;2057;50.858;6.572;2023-06-22T03:57:13;32.40;;;6.80;;
4084;SDS011;2057;50.858;6.572;2023-06-22T03:59:38;12.97;;;6.50;;
4084;SDS011;2057;50.858;6.572;2023-06-22T04:02:03;12.37;;;6.53;;
4084;SDS011;2057;50.858;6.572;2023-06-22T04:04:29;17.43;;;5.90;;
4084;SDS011;2057;50.858;6.572;2023-06-22T04:06:54;23.87;;;7.30;;
4084;SDS011;2057;50.858;6.572;2023-06-22T04:09:20;23.43;;;6.80;;
4084;SDS011;2057;50.858;6.572;2023-06-22T04:11:46;11.20;;;6.30;;
4084;SDS011;2057;50.858;6.572;2023-06-22T04:14:12;29.07;;;5.70;;
4084;SDS011;2057;50.858;6.572;2023-06-22T04:16:37;15.53;;;5.83;;
4084;SDS011;2057;50.858;6.572;2023-06-22T04:19:02;22.20;;;6.33;;
4084;SDS011;2057;50.858;6.572;2023-06-22T04:21:28;11.73;;;6.00;;
4084;SDS011;2057;50.858;6.572;2023-06-22T04:23:53;12.27;;;6.33;;
4084;SDS011;2057;50.858;6.572;2023-06-22T04:26:18;15.13;;;6.10;;
4084;SDS011;2057;50.858;6.572;2023-06-22T04:28:46;15.40;;;5.73;;
4084;SDS011;2057;50.858;6.572;2023-06-22T04:31:16;17.53;;;5.80;;
4084;SDS011;2057;50.858;6.572;2023-06-22T04:33:42;19.57;;;6.10;;
4084;SDS011;2057;50.858;6.572;2023-06-22T04:36:07;29.70;;;6.80;;
4084;SDS011;2057;50.858;6.572;2023-06-22T04:38:32;8.63;;;4.80;;
4084;SDS011;2057;50.858;6.572;2023-06-22T04:40:58;13.00;;;6.00;;
4084;SDS011;2057;50.858;6.572;2023-06-22T04:43:23;13.83;;;5.90;;
4084;SDS011;2057;50.858;6.572;2023-06-22T04:45:49;10.90;;;6.13;;
4084;SDS011;2057;50.858;6.572;2023-06-22T04:48:17;17.33;;;6.77;;
4084;SDS011;2057;50.858;6.572;2023-06-22T04:50:42;12.73;;;6.03;;
4084;SDS011;2057;50.858;6.572;2023-06-22T04:53:09;11.87;;;5.07;;
4084;SDS011;2057;50.858;6.572;2023-06-22T04:55:37;9.27;;;5.80;;
4084;SDS011;2057;50.858;6.572;2023-06-22T04:58:06;12.97;;;5.87;;
4084;SDS011;2057;50.858;6.572;2023-06-22T05:00:32;15.53;;;6.70;;
4084;SDS011;2057;50.858;6.572;2023-06-22T05:03:01;16.47;;;6.87;;
4084;SDS011;2057;50.858;6.572;2023-06-22T05:05:28;15.23;;;7.37;;
4084;SDS011;2057;50.858;6.572;2023-06-22T05:07:53;12.40;;;5.80;;
4084;SDS011;2057;50.858;6.572;2023-06-22T05:10:24;13.27;;;6.60;;
4084;SDS011;2057;50.858;6.572;2023-06-22T05:12:50;12.27;;;6.70;;
4084;SDS011;2057;50.858;6.572;2023-06-22T05:15:16;10.40;;;6.10;;
4084;SDS011;2057;50.858;6.572;2023-06-22T05:17:41;13.73;;;7.40;;
4084;SDS011;2057;50.858;6.572;2023-06-22T05:20:12;14.70;;;6.53;;
4084;SDS011;2057;50.858;6.572;2023-06-22T05:22:38;8.17;;;6.27;;
4084;SDS011;2057;50.858;6.572;2023-06-22T05:25:05;11.30;;;7.03;;
4084;SDS011;2057;50.858;6.572;2023-06-22T05:27:33;17.60;;;6.90;;
4084;SDS011;2057;50.858;6.572;2023-06-22T05:29:58;29.30;;;6.37;;
4084;SDS011;2057;50.858;6.572;2023-06-22T05:32:24;14.17;;;6.20;;
4084;SDS011;2057;50.858;6.572;2023-06-22T05:34:49;14.10;;;6.40;;
4084;SDS011;2057;50.858;6.572;2023-06-22T05:37:14;22.17;;;6.80;;
4084;SDS011;2057;50.858;6.572;2023-06-22T05:39:40;28.67;;;7.20;;
4084;SDS011;2057;50.858;6.572;2023-06-22T05:42:05;11.00;;;5.70;;
4084;SDS011;2057;50.858;6.572;2023-06-22T05:44:31;29.33;;;7.80;;
4084;SDS011;2057;50.858;6.572;2023-06-22T05:46:58;17.93;;;7.23;;
4084;SDS011;2057;50.858;6.572;2023-06-22T05:49:23;17.37;;;6.60;;
4084;SDS011;2057;50.858;6.572;2023-06-22T05:51:54;15.73;;;6.90;;
4084;SDS011;2057;50.858;6.572;2023-06-22T05:54:19;14.43;;;6.37;;
4084;SDS011;2057;50.858;6.572;2023-06-22T05:56:45;15.67;;;6.50;;
4084;SDS011;2057;50.858;6.572;2023-06-22T05:59:10;11.13;;;6.97;;
4084;SDS011;2057;50.858;6.572;2023-06-22T06:01:35;13.73;;;7.93;;
4084;SDS011;2057;50.858;6.572;2023-06-22T06:04:01;16.73;;;6.70;;
4084;SDS011;2057;50.858;6.572;2023-06-22T06:06:30;12.83;;;6.87;;
4084;SDS011;2057;50.858;6.572;2023-06-22T06:08:55;12.43;;;7.13;;
4084;SDS011;2057;50.858;6.572;2023-06-22T06:11:21;11.40;;;7.63;;
4084;SDS011;2057;50.858;6.572;2023-06-22T06:13:46;12.33;;;7.00;;
4084;SDS011;2057;50.858;6.572;2023-06-22T06:16:12;11.63;;;7.20;;
4084;SDS011;2057;50.858;6.572;2023-06-22T06:18:37;21.83;;;7.73;;
4084;SDS011;2057;50.858;6.572;2023-06-22T06:21:03;27.43;;;6.30;;
4084;SDS011;2057;50.858;6.572;2023-06-22T06:23:28;17.83;;;7.70;;
4084;SDS011;2057;50.858;6.572;2023-06-22T06:25:53;33.50;;;7.80;;
4084;SDS011;2057;50.858;6.572;2023-06-22T06:28:19;14.40;;;6.93;;
4084;SDS011;2057;50.858;6.572;2023-06-22T06:30:44;14.23;;;7.10;;
4084;SDS011;2057;50.858;6.572;2023-06-22T06:33:12;22.20;;;8.53;;
4084;SDS011;2057;50.858;6.572;2023-06-22T06:35:38;25.27;;;7.17;;
4084;SDS011;2057;50.858;6.572;2023-06-22T06:38:03;12.43;;;5.60;;
4084;SDS011;2057;50.858;6.572;2023-06-22T06:40:28;11.97;;;7.17;;
4084;SDS011;2057;50.858;6.572;2023-06-22T06:42:54;21.27;;;7.00;;
4084;SDS011;2057;50.858;6.572;2023-06-22T06:45:20;20.83;;;7.87;;
4084;SDS011;2057;50.858;6.572;2023-06-22T06:47:51;25.07;;;7.23;;
4084;SDS011;2057;50.858;6.572;2023-06-22T06:50:17;15.30;;;7.43;;
4084;SDS011;2057;50.858;6.572;2023-06-22T06:52:43;15.53;;;7.30;;
4084;SDS011;2057;50.858;6.572;2023-06-22T06:55:09;25.97;;;8.07;;
4084;SDS011;2057;50.858;6.572;2023-06-22T06:57:38;19.43;;;8.60;;
4084;SDS011;2057;50.858;6.572;2023-06-22T07:00:07;18.20;;;8.50;;
4084;SDS011;2057;50.858;6.572;2023-06-22T07:02:40;15.20;;;8.97;;
4084;SDS011;2057;50.858;6.572;2023-06-22T07:05:06;13.87;;;8.67;;
4084;SDS011;2057;50.858;6.572;2023-06-22T07:07:33;18.30;;;9.43;;
4084;SDS011;2057;50.858;6.572;2023-06-22T07:09:58;20.83;;;9.73;;
4084;SDS011;2057;50.858;6.572;2023-06-22T07:12:24;29.07;;;9.27;;
4084;SDS011;2057;50.858;6.572;2023-06-22T07:14:49;29.33;;;7.93;;
4084;SDS011;2057;50.858;6.572;2023-06-22T07:17:15;32.23;;;9.23;;
4084;SDS011;2057;50.858;6.572;2023-06-22T07:19:41;18.70;;;9.40;;
4084;SDS011;2057;50.858;6.572;2023-06-22T07:22:07;34.60;;;9.57;;
4084;SDS011;2057;50.858;6.572;2023-06-22T07:24:32;19.83;;;10.77;;
4084;SDS011;2057;50.858;6.572;2023-06-22T07:26:58;17.20;;;9.10;;
4084;SDS011;2057;50.858;6.572;2023-06-22T07:29:24;15.57;;;9.63;;
4084;SDS011;2057;50.858;6.572;2023-06-22T07:31:50;19.17;;;9.77;;
4084;SDS011;2057;50.858;6.572;2023-06-22T07:34:16;18.30;;;9.10;;
4084;SDS011;2057;50.858;6.572;2023-06-22T07:36:42;12.97;;;9.33;;
4084;SDS011;2057;50.858;6.572;2023-06-22T07:39:08;19.73;;;9.63;;
4084;SDS011;2057;50.858;6.572;2023-06-22T07:41:33;25.00;;;9.90;;
4084;SDS011;2057;50.858;6.572;2023-06-22T07:43:59;18.73;;;9.70;;
4084;SDS011;2057;50.858;6.572;2023-06-22T07:46:24;18.40;;;11.53;;
4084;SDS011;2057;50.858;6.572;2023-06-22T07:48:49;18.13;;;10.57;;
4084;SDS011;2057;50.858;6.572;2023-06-22T07:51:15;17.10;;;10.47;;
4084;SDS011;2057;50.858;6.572;2023-06-22T07:53:40;17.33;;;10.77;;
4084;SDS011;2057;50.858;6.572;2023-06-22T07:56:06;15.80;;;10.97;;
4084;SDS011;2057;50.858;6.572;2023-06-22T07:58:32;22.50;;;10.73;;
4084;SDS011;2057;50.858;6.572;2023-06-22T08:00:58;24.33;;;11.47;;
4084;SDS011;2057;50.858;6.572;2023-06-22T08:03:23;11.70;;;8.90;;
4084;SDS011;2057;50.858;6.572;2023-06-22T08:05:48;17.03;;;9.73;;
4084;SDS011;2057;50.858;6.572;2023-06-22T08:08:14;23.33;;;10.77;;
4084;SDS011;2057;50.858;6.572;2023-06-22T08:10:40;11.90;;;9.13;;
4084;SDS011;2057;50.858;6.572;2023-06-22T08:13:06;21.17;;;10.43;;
4084;SDS011;2057;50.858;6.572;2023-06-22T08:15:31;24.20;;;9.53;;
4084;SDS011;2057;50.858;6.572;2023-06-22T08:17:56;18.30;;;10.80;;
4084;SDS011;2057;50.858;6.572;2023-06-22T08:20:22;16.33;;;12.90;;
4084;SDS011;2057;50.858;6.572;2023-06-22T08:22:48;31.13;;;11.60;;
4084;SDS011;2057;50.858;6.572;2023-06-22T08:25:13;20.93;;;12.00;;
4084;SDS011;2057;50.858;6.572;2023-06-22T08:27:39;11.53;;;9.57;;
4084;SDS011;2057;50.858;6.572;2023-06-22T08:30:05;15.50;;;12.33;;
4084;SDS011;2057;50.858;6.572;2023-06-22T08:32:31;14.57;;;12.00;;
4084;SDS011;2057;50.858;6.572;2023-06-22T08:34:57;23.10;;;13.40;;
4084;SDS011;2057;50.858;6.572;2023-06-22T08:37:23;20.10;;;12.93;;
4084;SDS011;2057;50.858;6.572;2023-06-22T08:39:55;25.83;;;11.90;;
4084;SDS011;2057;50.858;6.572;2023-06-22T08:42:20;15.40;;;12.53;;
4084;SDS011;2057;50.858;6.572;2023-06-22T08:44:46;14.80;;;10.97;;
4084;SDS011;2057;50.858;6.572;2023-06-22T08:47:11;21.27;;;11.20;;
4084;SDS011;2057;50.858;6.572;2023-06-22T08:49:36;21.63;;;9.70;;
4084;SDS011;2057;50.858;6.572;2023-06-22T08:52:02;14.33;;;11.37;;
4084;SDS011;2057;50.858;6.572;2023-06-22T08:54:27;15.37;;;11.27;;
4084;SDS011;2057;50.858;6.572;2023-06-22T08:56:52;15.50;;;10.20;;
4084;SDS011;2057;50.858;6.572;2023-06-22T08:59:18;17.13;;;11.90;;
4084;SDS011;2057;50.858;6.572;2023-06-22T09:01:43;11.37;;;9.73;;
4084;SDS011;2057;50.858;6.572;2023-06-22T09:04:13;13.23;;;9.30;;
4084;SDS011;2057;50.858;6.572;2023-06-22T09:06:40;11.80;;;10.40;;
4084;SDS011;2057;50.858;6.572;2023-06-22T09:09:09;11.80;;;9.70;;
4084;SDS011;2057;50.858;6.572;2023-06-22T09:11:35;19.37;;;11.90;;
4084;SDS011;2057;50.858;6.572;2023-06-22T09:14:01;10.73;;;9.63;;
4084;SDS011;2057;50.858;6.572;2023-06-22T09:16:27;17.83;;;10.90;;
4084;SDS011;2057;50.858;6.572;2023-06-22T09:18:53;20.00;;;11.13;;
4084;SDS011;2057;50.858;6.572;2023-06-22T09:21:18;17.17;;;12.20;;
4084;SDS011;2057;50.858;6.572;2023-06-22T09:23:43;16.33;;;9.67;;
4084;SDS011;2057;50.858;6.572;2023-06-22T09:26:11;13.60;;;10.10;;
4084;SDS011;2057;50.858;6.572;2023-06-22T09:28:37;21.63;;;12.77;;
4084;SDS011;2057;50.858;6.572;2023-06-22T09:31:03;18.67;;;11.00;;
4084;SDS011;2057;50.858;6.572;2023-06-22T09:33:28;13.77;;;11.30;;
4084;SDS011;2057;50.858;6.572;2023-06-22T09:35:53;24.60;;;12.70;;
4084;SDS011;2057;50.858;6.572;2023-06-22T09:38:18;13.90;;;10.90;;
4084;SDS011;2057;50.858;6.572;2023-06-22T09:40:44;11.60;;;10.40;;
4084;SDS011;2057;50.858;6.572;2023-06-22T09:43:09;16.60;;;11.63;;
4084;SDS011;2057;50.858;6.572;2023-06-22T09:45:34;14.77;;;10.50;;
4084;SDS011;2057;50.858;6.572;2023-06-22T09:48:00;12.17;;;8.70;;
4084;SDS011;2057;50.858;6.572;2023-06-22T09:50:25;13.93;;;9.30;;
4084;SDS011;2057;50.858;6.572;2023-06-22T09:52:51;9.80;;;8.80;;
4084;SDS011;2057;50.858;6.572;2023-06-22T09:55:20;11.90;;;9.53;;
4084;SDS011;2057;50.858;6.572;2023-06-22T09:57:45;14.27;;;9.67;;
4084;SDS011;2057;50.858;6.572;2023-06-22T10:00:11;15.10;;;8.93;;
4084;SDS011;2057;50.858;6.572;2023-06-22T10:02:38;9.40;;;8.40;;
4084;SDS011;2057;50.858;6.572;2023-06-22T10:05:04;14.77;;;10.33;;
4084;SDS011;2057;50.858;6.572;2023-06-22T10:07:29;30.23;;;11.40;;
4084;SDS011;2057;50.858;6.572;2023-06-22T10:09:55;26.03;;;11.20;;
4084;SDS011;2057;50.858;6.572;2023-06-22T10:12:20;21.53;;;11.90;;
4084;SDS011;2057;50.858;6.572;2023-06-22T10:14:45;15.10;;;11.13;;
4084;SDS011;2057;50.858;6.572;2023-06-22T10:17:11;17.13;;;12.13;;
4084;SDS011;2057;50.858;6.572;2023-06-22T10:19:36;14.50;;;12.03;;
4084;SDS011;2057;50.858;6.572;2023-06-22T10:22:02;16.73;;;10.87;;
4084;SDS011;2057;50.858;6.572;2023-06-22T10:24:29;18.90;;;12.97;;
4084;SDS011;2057;50.858;6.572;2023-06-22T10:26:54;15.83;;;12.30;;
4084;SDS011;2057;50.858;6.572;2023-06-22T10:29:19;20.37;;;14.23;;
4084;SDS011;2057;50.858;6.572;2023-06-22T10:31:45;18.10;;;13.70;;
4084;SDS011;2057;50.858;6.572;2023-06-22T10:34:13;21.33;;;14.47;;
4084;SDS011;2057;50.858;6.572;2023-06-22T10:36:39;27.97;;;15.20;;
4084;SDS011;2057;50.858;6.572;2023-06-22T10:39:04;27.40;;;14.10;;
4084;SDS011;2057;50.858;6.572;2023-06-22T10:41:30;30.13;;;15.17;;
4084;SDS011;2057;50.858;6.572;2023-06-22T10:43:56;20.67;;;13.80;;
4084;SDS011;2057;50.858;6.572;2023-06-22T10:46:21;17.60;;;14.83;;
4084;SDS011;2057;50.858;6.572;2023-06-22T10:48:49;29.93;;;16.93;;
4084;SDS011;2057;50.858;6.572;2023-06-22T10:51:15;22.43;;;15.03;;
4084;SDS011;2057;50.858;6.572;2023-06-22T10:53:40;21.27;;;14.90;;
4084;SDS011;2057;50.858;6.572;2023-06-22T10:56:06;18.27;;;14.93;;
4084;SDS011;2057;50.858;6.572;2023-06-22T10:58:31;24.63;;;13.27;;
4084;SDS011;2057;50.858;6.572;2023-06-22T11:00:56;21.57;;;13.90;;
4084;SDS011;2057;50.858;6.572;2023-06-22T11:03:22;18.30;;;13.33;;
4084;SDS011;2057;50.858;6.572;2023-06-22T11:05:47;16.27;;;14.17;;
4084;SDS011;2057;50.858;6.572;2023-06-22T11:08:13;19.00;;;15.37;;
4084;SDS011;2057;50.858;6.572;2023-06-22T11:10:38;24.00;;;17.00;;
4084;SDS011;2057;50.858;6.572;2023-06-22T11:13:03;31.37;;;14.73;;
4084;SDS011;2057;50.858;6.572;2023-06-22T11:15:30;26.27;;;16.63;;
4084;SDS011;2057;50.858;6.572;2023-06-22T11:17:55;36.80;;;17.77;;
4084;SDS011;2057;50.858;6.572;2023-06-22T11:20:22;20.80;;;15.30;;
4084;SDS011;2057;50.858;6.572;2023-06-22T11:22:47;25.17;;;17.60;;
4084;SDS011;2057;50.858;6.572;2023-06-22T11:25:12;22.07;;;18.83;;
4084;SDS011;2057;50.858;6.572;2023-06-22T11:27:38;35.33;;;18.93;;
4084;SDS011;2057;50.858;6.572;2023-06-22T11:30:03;24.10;;;19.07;;
4084;SDS011;2057;50.858;6.572;2023-06-22T11:32:29;27.80;;;19.47;;
4084;SDS011;2057;50.858;6.572;2023-06-22T11:34:55;24.43;;;18.60;;
4084;SDS011;2057;50.858;6.572;2023-06-22T11:37:20;24.97;;;17.00;;
4084;SDS011;2057;50.858;6.572;2023-06-22T11:39:45;26.13;;;18.00;;
4084;SDS011;2057;50.858;6.572;2023-06-22T11:42:10;20.03;;;17.57;;
4084;SDS011;2057;50.858;6.572;2023-06-22T11:44:36;23.00;;;18.47;;
4084;SDS011;2057;50.858;6.572;2023-06-22T11:47:03;20.80;;;17.50;;
4084;SDS011;2057;50.858;6.572;2023-06-22T11:49:32;20.27;;;16.00;;
4084;SDS011;2057;50.858;6.572;2023-06-22T11:51:57;19.73;;;15.03;;
4084;SDS011;2057;50.858;6.572;2023-06-22T11:54:23;23.40;;;17.23;;
4084;SDS011;2057;50.858;6.572;2023-06-22T11:56:49;18.27;;;15.50;;
4084;SDS011;2057;50.858;6.572;2023-06-22T11:59:15;32.70;;;15.40;;
4084;SDS011;2057;50.858;6.572;2023-06-22T12:01:40;17.50;;;15.70;;
4084;SDS011;2057;50.858;6.572;2023-06-22T12:04:05;20.83;;;15.37;;
4084;SDS011;2057;50.858;6.572;2023-06-22T12:06:35;20.00;;;17.87;;
4084;SDS011;2057;50.858;6.572;2023-06-22T12:09:04;22.03;;;18.60;;
4084;SDS011;2057;50.858;6.572;2023-06-22T12:11:30;34.13;;;20.17;;
4084;SDS011;2057;50.858;6.572;2023-06-22T12:13:55;26.13;;;18.40;;
4084;SDS011;2057;50.858;6.572;2023-06-22T12:16:21;25.30;;;19.77;;
4084;SDS011;2057;50.858;6.572;2023-06-22T12:18:46;22.50;;;17.70;;
4084;SDS011;2057;50.858;6.572;2023-06-22T12:21:12;18.93;;;15.97;;
4084;SDS011;2057;50.858;6.572;2023-06-22T12:23:37;20.57;;;17.77;;
4084;SDS011;2057;50.858;6.572;2023-06-22T12:26:04;20.33;;;16.50;;
4084;SDS011;2057;50.858;6.572;2023-06-22T12:28:29;27.60;;;18.37;;
4084;SDS011;2057;50.858;6.572;2023-06-22T12:36:04;17.60;;;15.43;;
4084;SDS011;2057;50.858;6.572;2023-06-22T12:38:30;17.03;;;14.37;;
4084;SDS011;2057;50.858;6.572;2023-06-22T12:40:55;20.87;;;15.67;;
4084;SDS011;2057;50.858;6.572;2023-06-22T12:45:55;17.07;;;13.30;;
4084;SDS011;2057;50.858;6.572;2023-06-22T13:29:49;25.33;;;22.17;;
4084;SDS011;2057;50.858;6.572;2023-06-22T13:40:00;23.10;;;16.47;;
4084;SDS011;2057;50.858;6.572;2023-06-22T13:42:28;17.07;;;15.10;;
4084;SDS011;2057;50.858;6.572;2023-06-22T13:44:53;18.20;;;16.00;;
4084;SDS011;2057;50.858;6.572;2023-06-22T13:47:19;18.83;;;16.93;;
4084;SDS011;2057;50.858;6.572;2023-06-22T13:49:44;20.70;;;15.27;;
4084;SDS011;2057;50.858;6.572;2023-06-22T13:52:09;17.07;;;13.27;;
4084;SDS011;2057;50.858;6.572;2023-06-22T13:54:36;15.77;;;13.17;;
4084;SDS011;2057;50.858;6.572;2023-06-22T13:57:01;15.43;;;13.47;;
4084;SDS011;2057;50.858;6.572;2023-06-22T13:59:27;18.00;;;13.30;;
4084;SDS011;2057;50.858;6.572;2023-06-22T14:01:53;14.93;;;13.40;;
4084;SDS011;2057;50.858;6.572;2023-06-22T14:04:18;17.40;;;12.50;;
4084;SDS011;2057;50.858;6.572;2023-06-22T14:06:44;17.43;;;11.77;;
4084;SDS011;2057;50.858;6.572;2023-06-22T14:09:09;11.17;;;9.87;;
4084;SDS011;2057;50.858;6.572;2023-06-22T14:11:35;13.90;;;11.53;;
4084;SDS011;2057;50.858;6.572;2023-06-22T14:14:00;23.63;;;12.60;;
4084;SDS011;2057;50.858;6.572;2023-06-22T14:16:25;16.67;;;11.40;;
4084;SDS011;2057;50.858;6.572;2023-06-22T14:18:51;18.60;;;10.87;;
4084;SDS011;2057;50.858;6.572;2023-06-22T14:21:16;13.87;;;12.07;;
4084;SDS011;2057;50.858;6.572;2023-06-22T14:23:41;18.87;;;14.00;;
4084;SDS011;2057;50.858;6.572;2023-06-22T14:26:07;21.93;;;14.00;;
4084;SDS011;2057;50.858;6.572;2023-06-22T14:28:32;20.03;;;16.23;;
4084;SDS011;2057;50.858;6.572;2023-06-22T14:30:57;18.20;;;16.00;;
4084;SDS011;2057;50.858;6.572;2023-06-22T14:33:23;21.67;;;16.80;;
4084;SDS011;2057;50.858;6.572;2023-06-22T14:35:48;23.57;;;18.37;;
4084;SDS011;2057;50.858;6.572;2023-06-22T14:38:14;19.80;;;17.33;;
4084;SDS011;2057;50.858;6.572;2023-06-22T14:40:39;20.97;;;18.47;;
4084;SDS011;2057;50.858;6.572;2023-06-22T14:43:05;23.47;;;20.20;;
4084;SDS011;2057;50.858;6.572;2023-06-22T14:45:30;22.57;;;19.10;;
4084;SDS011;2057;50.858;6.572;2023-06-22T14:47:55;22.10;;;18.20;;
4084;SDS011;2057;50.858;6.572;2023-06-22T14:50:21;22.50;;;18.80;;
4084;SDS011;2057;50.858;6.572;2023-06-22T14:52:46;26.10;;;20.37;;
4084;SDS011;2057;50.858;6.572;2023-06-22T14:55:11;25.33;;;20.67;;
4084;SDS011;2057;50.858;6.572;2023-06-22T14:57:37;21.93;;;19.43;;
4084;SDS011;2057;50.858;6.572;2023-06-22T15:00:02;22.00;;;19.70;;
4084;SDS011;2057;50.858;6.572;2023-06-22T15:02:28;24.63;;;21.90;;
4084;SDS011;2057;50.858;6.572;2023-06-22T15:04:54;27.57;;;21.60;;
4084;SDS011;2057;50.858;6.572;2023-06-22T15:07:19;23.60;;;21.20;;
4084;SDS011;2057;50.858;6.572;2023-06-22T15:09:45;31.07;;;23.23;;
4084;SDS011;2057;50.858;6.572;2023-06-22T15:12:10;26.50;;;23.53;;
4084;SDS011;2057;50.858;6.572;2023-06-22T15:14:42;31.33;;;24.00;;
4084;SDS011;2057;50.858;6.572;2023-06-22T15:17:08;31.60;;;27.60;;
4084;SDS011;2057;50.858;6.572;2023-06-22T15:19:37;42.53;;;28.70;;
4084;SDS011;2057;50.858;6.572;2023-06-22T15:22:06;40.00;;;28.40;;
4084;SDS011;2057;50.858;6.572;2023-06-22T15:24:32;30.60;;;27.23;;
4084;SDS011;2057;50.858;6.572;2023-06-22T15:26:58;30.97;;;26.93;;
4084;SDS011;2057;50.858;6.572;2023-06-22T15:29:24;31.30;;;26.37;;
4084;SDS011;2057;50.858;6.572;2023-06-22T15:31:50;41.17;;;25.47;;
4084;SDS011;2057;50.858;6.572;2023-06-22T15:34:16;35.10;;;29.10;;
4084;SDS011;2057;50.858;6.572;2023-06-22T15:36:41;47.00;;;29.73;;
4084;SDS011;2057;50.858;6.572;2023-06-22T15:39:07;55.60;;;32.10;;
4084;SDS011;2057;50.858;6.572;2023-06-22T15:41:32;48.33;;;33.07;;
4084;SDS011;2057;50.858;6.572;2023-06-22T15:43:58;54.80;;;32.13;;
4084;SDS011;2057;50.858;6.572;2023-06-22T15:46:23;49.50;;;32.80;;
4084;SDS011;2057;50.858;6.572;2023-06-22T15:48:49;28.80;;;16.67;;
4084;SDS011;2057;50.858;6.572;2023-06-22T15:51:14;43.90;;;21.97;;
4084;SDS011;2057;50.858;6.572;2023-06-22T15:53:42;24.00;;;20.13;;
4084;SDS011;2057;50.858;6.572;2023-06-22T15:56:07;30.10;;;21.53;;
4084;SDS011;2057;50.858;6.572;2023-06-22T15:58:36;25.30;;;18.90;;
4084;SDS011;2057;50.858;6.572;2023-06-22T16:01:05;17.97;;;16.07;;
4084;SDS011;2057;50.858;6.572;2023-06-22T16:03:30;18.83;;;13.27;;